createdAt,value
2018-03-19T00:02:01.660Z,63.50
2018-03-19T00:04:30.169Z,63.63
2018-03-19T00:06:58.676Z,63.96
2018-03-19T00:09:27.206Z,63.71
2018-03-19T00:11:55.776Z,63.47
2018-03-19T00:14:24.383Z,63.36
2018-03-19T00:16:53.080Z,63.14
2018-03-19T00:19:21.772Z,63.56
2018-03-19T00:21:50.229Z,63.43
2018-03-19T00:24:19.665Z,63.34
2018-03-19T00:26:48.244Z,63.54
2018-03-19T00:29:16.724Z,63.92
2018-03-19T00:31:45.211Z,63.83
2018-03-19T00:34:13.813Z,64.47
2018-03-19T00:36:42.490Z,64.45
2018-03-19T00:39:11.941Z,64.49
2018-03-19T00:41:40.839Z,64.29
2018-03-19T00:44:09.418Z,64.25
2018-03-19T00:46:38.001Z,64.24
2018-03-19T00:49:06.637Z,64.53
2018-03-19T00:51:35.320Z,64.06
2018-03-19T00:54:03.852Z,64.40
2018-03-19T00:56:32.387Z,64.33
2018-03-19T00:59:00.825Z,64.79
2018-03-19T01:01:29.297Z,64.55
2018-03-19T01:03:57.794Z,65.27
2018-03-19T01:06:26.225Z,65.16
2018-03-19T01:08:54.662Z,65.31
2018-03-19T01:11:23.395Z,65.16
2018-03-19T01:13:51.869Z,65.45
2018-03-19T01:16:20.328Z,65.54
2018-03-19T01:18:48.979Z,65.78
2018-03-19T01:21:17.504Z,65.85
2018-03-19T01:23:45.930Z,65.48
2018-03-19T01:26:15.339Z,66.04
2018-03-19T01:28:43.834Z,66.10
2018-03-19T01:31:12.415Z,66.11
2018-03-19T01:33:41.267Z,65.86
2018-03-19T01:36:09.786Z,65.79
2018-03-19T01:38:38.776Z,65.93
2018-03-19T01:41:08.177Z,65.72
2018-03-19T01:43:36.898Z,66.09
2018-03-19T01:46:05.459Z,66.40
2018-03-19T01:48:34.137Z,65.94
2018-03-19T01:51:02.620Z,65.81
2018-03-19T01:53:31.090Z,66.22
2018-03-19T01:56:05.953Z,66.10
2018-03-19T01:58:34.517Z,66.29
2018-03-19T02:01:03.086Z,66.23
2018-03-19T02:03:31.676Z,66.18
2018-03-19T02:06:00.122Z,65.90
2018-03-19T02:08:28.592Z,65.90
2018-03-19T02:10:57.530Z,65.47
2018-03-19T02:13:26.011Z,65.43
2018-03-19T02:15:54.494Z,65.43
2018-03-19T02:18:23.487Z,66.12
2018-03-19T02:20:52.006Z,65.69
2018-03-19T02:23:20.648Z,65.66
2018-03-19T02:25:49.252Z,65.59
2018-03-19T02:28:17.750Z,65.70
2018-03-19T02:30:46.844Z,65.84
2018-03-19T02:33:15.491Z,65.46
2018-03-19T02:35:43.939Z,65.16
2018-03-19T02:38:12.457Z,64.87
2018-03-19T02:40:41.034Z,64.88
2018-03-19T02:43:09.465Z,64.69
2018-03-19T02:45:37.980Z,64.65
2018-03-19T02:48:06.570Z,64.57
2018-03-19T02:50:38.243Z,64.37
2018-03-19T02:53:06.729Z,64.31
2018-03-19T02:55:35.658Z,64.42
2018-03-19T02:58:04.204Z,64.24
2018-03-19T03:00:32.683Z,64.11
2018-03-19T03:03:01.164Z,64.00
2018-03-19T03:05:29.639Z,64.25
2018-03-19T03:07:58.121Z,64.34
2018-03-19T03:10:27.631Z,64.53
2018-03-19T03:12:56.173Z,64.56
2018-03-19T03:15:24.735Z,65.00
2018-03-19T03:17:53.689Z,65.18
2018-03-19T03:20:22.181Z,64.38
2018-03-19T03:22:50.754Z,64.14
2018-03-19T03:25:19.542Z,64.46
2018-03-19T03:27:48.171Z,64.13
2018-03-19T03:30:16.662Z,63.61
2018-03-19T03:32:45.290Z,63.83
2018-03-19T03:35:13.755Z,63.26
2018-03-19T03:37:42.253Z,63.15
2018-03-19T03:40:10.814Z,63.37
2018-03-19T03:42:39.269Z,63.16
2018-03-19T03:45:07.744Z,63.00
2018-03-19T03:47:36.283Z,62.71
2018-03-19T03:50:05.390Z,62.17
2018-03-19T03:52:33.894Z,62.76
2018-03-19T03:55:02.556Z,63.46
2018-03-19T03:57:31.134Z,63.22
2018-03-19T03:59:59.731Z,62.92
2018-03-19T04:02:29.123Z,62.91
2018-03-19T04:04:57.639Z,62.80
2018-03-19T04:07:26.152Z,62.42
2018-03-19T04:09:55.078Z,62.72
2018-03-19T04:12:23.589Z,63.01
2018-03-19T04:14:52.088Z,62.79
2018-03-19T04:17:20.562Z,62.75
2018-03-19T04:19:49.051Z,62.93
2018-03-19T04:22:17.516Z,63.34
2018-03-19T04:24:46.892Z,62.73
2018-03-19T04:27:15.444Z,62.00
2018-03-19T04:29:43.957Z,61.75
2018-03-19T04:32:12.750Z,61.73
2018-03-19T04:34:41.394Z,61.75
2018-03-19T04:37:09.910Z,61.24
2018-03-19T04:39:38.621Z,61.29
2018-03-19T04:42:08.119Z,61.18
2018-03-19T04:44:36.632Z,61.78
2018-03-19T04:47:05.391Z,61.72
2018-03-19T04:49:33.890Z,62.38
2018-03-19T04:52:02.469Z,61.79
2018-03-19T04:54:31.966Z,61.91
2018-03-19T04:57:00.540Z,61.79
2018-03-19T04:59:29.116Z,61.43
2018-03-19T05:01:57.597Z,61.58
2018-03-19T05:04:26.073Z,62.30
2018-03-19T05:06:54.555Z,62.07
2018-03-19T05:09:23.037Z,61.87
2018-03-19T05:11:51.564Z,62.85
2018-03-19T05:14:20.008Z,62.53
2018-03-19T05:16:48.577Z,62.36
2018-03-19T05:19:18.084Z,62.29
2018-03-19T05:21:46.574Z,62.06
2018-03-19T05:24:15.559Z,61.45
2018-03-19T05:26:44.035Z,61.37
2018-03-19T05:29:12.654Z,61.08
2018-03-19T05:31:41.273Z,61.54
2018-03-19T05:34:09.826Z,61.28
2018-03-19T05:36:38.380Z,61.98
2018-03-19T05:39:07.094Z,62.29
2018-03-19T05:41:35.958Z,60.93
2018-03-19T05:44:04.458Z,61.14
2018-03-19T05:46:33.120Z,61.45
2018-03-19T05:49:01.618Z,61.85
2018-03-19T05:51:31.282Z,61.75
2018-03-19T05:53:59.814Z,61.84
2018-03-19T05:56:28.299Z,61.66
2018-03-19T05:58:56.775Z,61.43
2018-03-19T06:01:25.283Z,61.60
2018-03-19T06:03:53.771Z,61.09
2018-03-19T06:06:22.197Z,60.67
2018-03-19T06:08:52.049Z,60.59
2018-03-19T06:11:20.534Z,60.82
2018-03-19T06:13:49.725Z,60.64
2018-03-19T06:16:18.409Z,60.60
2018-03-19T06:18:47.004Z,60.55
2018-03-19T06:21:15.439Z,60.38
2018-03-19T06:23:44.477Z,59.73
2018-03-19T06:26:12.927Z,59.28
2018-03-19T06:28:41.450Z,58.99
2018-03-19T06:31:09.987Z,59.23
2018-03-19T06:33:38.562Z,59.11
2018-03-19T06:36:07.121Z,59.11
2018-03-19T06:38:36.616Z,58.67
2018-03-19T06:41:05.207Z,58.50
2018-03-19T06:43:33.766Z,58.13
2018-03-19T06:46:03.280Z,57.46
2018-03-19T06:48:32.076Z,57.40
2018-03-19T06:51:00.652Z,56.86
2018-03-19T06:53:31.670Z,54.91
2018-03-19T06:56:01.219Z,54.82
2018-03-19T06:58:30.131Z,54.50
2018-03-19T07:00:59.657Z,53.30
2018-03-19T07:03:28.130Z,53.49
2018-03-19T07:05:56.666Z,52.08
2018-03-19T07:08:26.171Z,50.53
2018-03-19T07:10:54.663Z,48.53
2018-03-19T07:13:23.238Z,47.71
2018-03-19T07:15:52.129Z,47.87
2018-03-19T07:18:20.626Z,47.45
2018-03-19T07:20:49.099Z,48.14
2018-03-19T07:23:17.853Z,48.15
2018-03-19T07:25:46.321Z,48.21
2018-03-19T07:28:14.952Z,46.32
2018-03-19T07:30:44.151Z,45.23
2018-03-19T07:33:12.722Z,45.74
2018-03-19T07:35:41.202Z,45.22
2018-03-19T07:38:10.941Z,45.75
2018-03-19T07:40:39.926Z,45.75
2018-03-19T07:43:08.526Z,44.65
2018-03-19T07:45:37.861Z,44.10
2018-03-19T07:48:06.576Z,44.16
2018-03-19T07:50:35.189Z,43.99
2018-03-19T07:53:03.988Z,43.79
2018-03-19T07:55:33.503Z,43.35
2018-03-19T07:58:02.251Z,42.25
2018-03-19T08:00:32.864Z,41.65
2018-03-19T08:03:01.504Z,40.41
2018-03-19T08:05:30.091Z,39.95
2018-03-19T08:07:58.881Z,35.58
2018-03-19T08:10:27.772Z,35.15
2018-03-19T08:12:56.256Z,37.10
2018-03-19T08:15:24.789Z,38.28
2018-03-19T08:17:53.261Z,39.57
2018-03-19T08:20:22.776Z,37.56
2018-03-19T08:22:51.657Z,38.40
2018-03-19T08:25:20.133Z,38.89
2018-03-19T08:27:48.637Z,32.92
2018-03-19T08:30:17.283Z,33.15
2018-03-19T08:32:45.746Z,34.67
2018-03-19T08:35:14.326Z,35.20
2018-03-19T08:37:42.922Z,34.70
2018-03-19T08:40:11.533Z,35.00
2018-03-19T08:42:40.186Z,34.72
2018-03-19T08:45:08.879Z,35.92
2018-03-19T08:47:37.459Z,31.37
2018-03-19T08:50:06.190Z,30.13
2018-03-19T08:52:34.870Z,30.29
2018-03-19T08:55:03.657Z,30.46
2018-03-19T08:57:33.937Z,29.44
2018-03-19T09:00:03.479Z,29.54
2018-03-19T09:02:32.113Z,29.34
2018-03-19T09:05:01.989Z,28.89
2018-03-19T09:07:30.725Z,27.63
2018-03-19T09:09:59.385Z,26.76
2018-03-19T09:12:27.921Z,27.09
2018-03-19T09:14:56.718Z,26.47
2018-03-19T09:17:25.234Z,25.24
2018-03-19T09:19:53.858Z,24.07
2018-03-19T09:22:22.595Z,22.82
2018-03-19T09:24:51.074Z,22.92
2018-03-19T09:27:19.536Z,22.89
2018-03-19T09:29:48.221Z,22.60
2018-03-19T09:32:16.812Z,21.58
2018-03-19T09:34:45.391Z,20.87
2018-03-19T09:37:15.928Z,21.02
2018-03-19T09:39:45.043Z,20.74
2018-03-19T09:42:13.699Z,20.40
2018-03-19T09:44:43.135Z,20.22
2018-03-19T09:47:11.924Z,21.58
2018-03-19T09:49:40.437Z,21.08
2018-03-19T09:52:09.071Z,20.05
2018-03-19T09:54:37.670Z,19.25
2018-03-19T09:57:06.262Z,20.01
2018-03-19T09:59:35.005Z,20.11
2018-03-19T10:02:03.567Z,20.91
2018-03-19T10:04:32.094Z,21.24
2018-03-19T10:07:01.143Z,21.25
2018-03-19T10:09:29.692Z,20.67
2018-03-19T10:11:58.240Z,19.96
2018-03-19T10:14:26.815Z,19.50
2018-03-19T10:16:55.269Z,18.91
2018-03-19T10:19:23.775Z,18.73
2018-03-19T10:21:52.446Z,19.06
2018-03-19T10:24:20.951Z,21.10
2018-03-19T10:26:49.437Z,25.60
2018-03-19T10:29:18.959Z,25.17
2018-03-19T10:31:47.520Z,24.72
2018-03-19T10:34:16.112Z,23.93
2018-03-19T10:36:44.769Z,23.52
2018-03-19T10:39:13.390Z,24.59
2018-03-19T10:41:42.062Z,23.64
2018-03-19T10:44:10.741Z,22.37
2018-03-19T10:46:39.434Z,20.81
2018-03-19T10:49:08.422Z,22.38
2018-03-19T10:51:38.027Z,23.75
2018-03-19T10:54:07.365Z,22.54
2018-03-19T10:56:36.117Z,21.10
2018-03-19T10:59:05.314Z,19.98
2018-03-19T11:01:39.833Z,20.92
2018-03-19T11:04:11.616Z,21.23
2018-03-19T11:06:45.702Z,21.93
2018-03-19T11:09:20.002Z,21.16
2018-03-19T11:11:48.716Z,20.60
2018-03-19T11:14:17.235Z,20.15
2018-03-19T11:16:46.177Z,19.77
2018-03-19T11:19:14.670Z,22.18
2018-03-19T11:21:43.508Z,22.26
2018-03-19T11:24:12.349Z,22.72
2018-03-19T11:26:40.932Z,24.62
2018-03-19T11:29:09.520Z,26.40
2018-03-19T11:31:38.202Z,27.18
2018-03-19T11:34:06.791Z,25.90
2018-03-19T11:36:35.466Z,24.54
2018-03-19T11:39:04.263Z,24.94
2018-03-19T11:41:33.134Z,25.93
2018-03-19T11:44:02.178Z,26.17
2018-03-19T11:46:32.383Z,25.86
2018-03-19T11:49:00.955Z,26.60
2018-03-19T11:51:29.433Z,25.24
2018-03-19T11:53:58.029Z,24.62
2018-03-19T11:56:26.574Z,25.06
2018-03-19T11:58:55.080Z,24.80
2018-03-19T12:01:25.188Z,25.21
2018-03-19T12:03:55.016Z,25.20
2018-03-19T12:06:23.956Z,24.79
2018-03-19T12:08:53.468Z,24.91
2018-03-19T12:11:23.057Z,24.72
2018-03-19T12:13:51.602Z,24.03
2018-03-19T12:16:20.157Z,23.59
2018-03-19T12:18:48.630Z,23.02
2018-03-19T12:21:17.158Z,23.40
2018-03-19T12:23:45.653Z,24.12
2018-03-19T12:26:14.197Z,25.26
2018-03-19T12:28:42.881Z,25.44
2018-03-19T12:31:11.895Z,25.23
2018-03-19T12:33:40.590Z,25.80
2018-03-19T12:36:09.261Z,24.85
2018-03-19T12:38:38.053Z,23.58
2018-03-19T12:41:06.721Z,22.92
2018-03-19T12:43:35.332Z,23.84
2018-03-19T12:46:04.755Z,22.15
2018-03-19T12:48:33.309Z,22.06
2018-03-19T12:51:02.119Z,21.50
2018-03-19T12:53:30.766Z,21.39
2018-03-19T12:55:59.444Z,21.66
2018-03-19T12:58:27.965Z,20.75
2018-03-19T13:00:56.521Z,21.99
2018-03-19T13:03:24.997Z,21.65
2018-03-19T13:05:53.428Z,20.45
2018-03-19T13:08:23.095Z,21.85
2018-03-19T13:10:52.038Z,22.20
2018-03-19T13:13:20.469Z,20.84
2018-03-19T13:15:49.161Z,21.35
2018-03-19T13:18:17.623Z,20.32
2018-03-19T13:20:46.137Z,20.84
2018-03-19T13:23:15.002Z,20.14
2018-03-19T13:25:43.611Z,20.06
2018-03-19T13:28:12.302Z,19.25
2018-03-19T13:30:40.993Z,19.32
2018-03-19T13:33:12.107Z,19.46
2018-03-19T13:35:40.998Z,19.32
2018-03-19T13:38:09.790Z,20.09
2018-03-19T13:40:38.473Z,20.11
2018-03-19T13:43:07.153Z,20.01
2018-03-19T13:45:36.667Z,20.33
2018-03-19T13:50:40.283Z,20.81
2018-03-19T13:53:11.006Z,21.76
2018-03-19T13:55:39.593Z,21.84
2018-03-19T13:58:08.404Z,22.43
2018-03-19T14:00:37.276Z,23.19
2018-03-19T14:03:06.076Z,24.03
2018-03-19T14:05:35.468Z,24.87
2018-03-19T14:08:04.663Z,25.41
2018-03-19T14:10:33.247Z,25.51
2018-03-19T14:13:02.854Z,25.90
2018-03-19T14:15:31.670Z,26.29
2018-03-19T14:18:00.123Z,26.84
2018-03-19T14:20:28.699Z,27.44
2018-03-19T14:22:57.180Z,27.31
2018-03-19T14:25:25.671Z,26.99
2018-03-19T14:27:54.426Z,26.92
2018-03-19T14:30:22.803Z,26.63
2018-03-19T14:32:51.749Z,26.51
2018-03-19T14:35:20.745Z,25.60
2018-03-19T14:37:50.424Z,24.84
2018-03-19T14:40:18.912Z,23.71
2018-03-19T14:42:47.681Z,23.97
2018-03-19T14:45:16.427Z,24.23
2018-03-19T14:47:45.513Z,24.71
2018-03-19T14:50:14.158Z,25.61
2018-03-19T14:52:42.697Z,26.25
2018-03-19T14:55:11.457Z,26.71
2018-03-19T14:57:40.117Z,27.77
2018-03-19T15:00:08.929Z,28.46
2018-03-19T15:02:37.745Z,29.17
2018-03-19T15:05:07.242Z,29.09
2018-03-19T15:07:37.680Z,29.45
2018-03-19T15:10:06.310Z,29.82
2018-03-19T15:12:35.222Z,30.25
2018-03-19T15:15:04.040Z,30.53
2018-03-19T15:17:32.627Z,30.37
2018-03-19T15:20:01.314Z,31.34
2018-03-19T15:22:29.839Z,31.47
2018-03-19T15:24:58.346Z,31.18
2018-03-19T15:27:26.945Z,31.31
2018-03-19T15:29:55.489Z,31.73
2018-03-19T15:32:23.924Z,31.89
2018-03-19T15:34:52.708Z,32.35
2018-03-19T15:37:21.142Z,32.19
2018-03-19T15:39:49.608Z,31.69
2018-03-19T15:42:19.013Z,30.53
2018-03-19T15:44:47.508Z,29.18
2018-03-19T15:47:15.945Z,29.16
2018-03-19T15:49:44.899Z,30.33
2018-03-19T15:52:13.472Z,30.95
2018-03-19T15:54:42.002Z,31.16
2018-03-19T15:57:11.042Z,32.28
2018-03-19T15:59:39.524Z,32.30
2018-03-19T16:02:08.098Z,32.43
2018-03-19T16:04:37.190Z,32.81
2018-03-19T16:07:05.813Z,32.90
2018-03-19T16:09:34.494Z,33.04
2018-03-19T16:12:03.963Z,33.47
2018-03-19T16:14:32.615Z,33.90
2018-03-19T16:17:01.145Z,34.13
2018-03-19T16:19:30.232Z,34.53
2018-03-19T16:21:58.686Z,34.90
2018-03-19T16:24:27.190Z,34.96
2018-03-19T16:26:56.036Z,34.97
2018-03-19T16:29:24.562Z,35.30
2018-03-19T16:31:53.042Z,35.14
2018-03-19T16:34:21.667Z,34.72
2018-03-19T16:36:50.225Z,34.55
2018-03-19T16:39:18.788Z,34.93
2018-03-19T16:41:47.385Z,35.27
2018-03-19T16:44:15.857Z,35.46
2018-03-19T16:46:44.488Z,35.76
2018-03-19T16:49:13.308Z,35.93
2018-03-19T16:51:42.240Z,35.93
2018-03-19T16:54:10.897Z,36.32
2018-03-19T16:59:14.167Z,36.47
2018-03-19T17:01:43.650Z,36.79
2018-03-19T17:04:12.343Z,36.06
2018-03-19T17:06:41.221Z,36.45
2018-03-19T17:09:10.401Z,36.40
2018-03-19T17:11:39.858Z,36.05
2018-03-19T17:14:08.753Z,35.81
2018-03-19T17:16:37.712Z,35.75
2018-03-19T17:19:06.514Z,35.19
2018-03-19T17:21:40.816Z,35.32
2018-03-19T17:24:10.962Z,35.32
2018-03-19T17:26:52.555Z,35.55
2018-03-19T17:29:21.492Z,35.98
2018-03-19T17:31:50.070Z,35.81
2018-03-19T17:34:18.623Z,35.62
2018-03-19T17:36:47.182Z,34.86
2018-03-19T17:39:15.865Z,34.64
2018-03-19T17:41:44.512Z,34.64
2018-03-19T17:44:13.146Z,34.69
2018-03-19T17:46:41.722Z,34.89
2018-03-19T17:49:10.470Z,35.11
2018-03-19T17:51:39.092Z,35.09
2018-03-19T17:54:07.702Z,35.49
2018-03-19T17:56:36.389Z,35.94
2018-03-19T17:59:05.542Z,35.96
2018-03-19T18:01:34.059Z,36.34
2018-03-19T18:04:02.896Z,36.11
2018-03-19T18:06:31.492Z,36.47
2018-03-19T18:08:59.951Z,36.73
2018-03-19T18:11:28.886Z,37.12
2018-03-19T18:13:57.377Z,37.43
2018-03-19T18:16:25.922Z,37.71
2018-03-19T18:18:54.558Z,38.20
2018-03-19T18:21:23.084Z,38.27
2018-03-19T18:23:51.616Z,38.68
2018-03-19T18:26:20.533Z,38.77
2018-03-19T18:28:49.026Z,38.98
2018-03-19T18:31:17.614Z,39.26
2018-03-19T18:33:46.778Z,39.38
2018-03-19T18:36:15.437Z,39.49
2018-03-19T18:38:44.123Z,39.82
2018-03-19T18:41:12.980Z,39.83
2018-03-19T18:43:41.828Z,40.09
2018-03-19T18:46:10.468Z,40.17
2018-03-19T18:48:39.257Z,40.35
2018-03-19T18:51:08.067Z,40.49
2018-03-19T18:53:37.472Z,40.82
2018-03-19T18:56:06.278Z,41.25
2018-03-19T18:58:35.045Z,41.62
2018-03-19T19:01:03.753Z,42.27
2018-03-19T19:03:34.421Z,42.39
2018-03-19T19:06:03.010Z,42.48
2018-03-19T19:08:31.492Z,42.47
2018-03-19T19:11:01.065Z,43.01
2018-03-19T19:13:29.482Z,44.22
2018-03-19T19:15:58.315Z,44.60
2018-03-19T19:18:27.871Z,44.97
2018-03-19T19:20:56.291Z,46.26
2018-03-19T19:23:25.148Z,47.13
2018-03-19T19:25:54.070Z,47.83
2018-03-19T19:28:22.768Z,48.24
2018-03-19T19:30:51.300Z,48.88
2018-03-19T19:33:20.958Z,49.44
2018-03-19T19:35:49.504Z,50.74
2018-03-19T19:38:17.941Z,51.49
2018-03-19T19:40:46.520Z,53.08
2018-03-19T19:43:15.148Z,54.09
2018-03-19T19:45:44.240Z,54.88
2018-03-19T19:48:13.106Z,55.46
2018-03-19T19:50:41.700Z,55.81
2018-03-19T19:53:11.038Z,56.48
2018-03-19T19:55:41.364Z,57.17
2018-03-19T19:58:09.930Z,57.77
2018-03-19T20:00:38.769Z,58.75
2018-03-19T20:03:07.963Z,59.38
2018-03-19T20:05:38.402Z,59.78
2018-03-19T20:08:07.009Z,60.16
2018-03-19T20:10:36.890Z,60.64
2018-03-19T20:13:07.028Z,61.56
2018-03-19T20:15:36.501Z,61.97
2018-03-19T20:18:05.297Z,62.51
2018-03-19T20:20:36.127Z,63.11
2018-03-19T20:23:05.333Z,63.80
2018-03-19T20:25:34.142Z,64.07
2018-03-19T20:28:03.892Z,64.19
2018-03-19T20:30:34.011Z,64.57
2018-03-19T20:33:03.003Z,64.59
2018-03-19T20:35:31.727Z,64.78
2018-03-19T20:38:00.450Z,65.12
2018-03-19T20:40:29.862Z,65.18
2018-03-19T20:42:58.467Z,65.16
2018-03-19T20:45:27.194Z,65.27
2018-03-19T20:47:56.632Z,65.25
2018-03-19T20:50:25.069Z,64.96
2018-03-19T20:52:53.593Z,64.78
2018-03-19T20:55:22.734Z,64.66
2018-03-19T20:57:51.183Z,64.33
2018-03-19T21:00:20.267Z,64.25
2018-03-19T21:02:49.030Z,64.20
2018-03-19T21:05:17.810Z,64.11
2018-03-19T21:07:46.925Z,64.04
2018-03-19T21:10:15.619Z,64.22
2018-03-19T21:12:44.144Z,64.80
2018-03-19T21:15:13.063Z,64.98
2018-03-19T21:17:42.757Z,65.36
2018-03-19T21:20:11.428Z,65.77
2018-03-19T21:22:41.180Z,66.07
2018-03-19T21:25:11.350Z,66.56
2018-03-19T21:27:40.836Z,66.70
2018-03-19T21:30:09.834Z,66.93
2018-03-19T21:32:38.561Z,67.14
2018-03-19T21:35:07.742Z,67.30
2018-03-19T21:37:36.280Z,67.39
2018-03-19T21:40:05.048Z,67.43
2018-03-19T21:42:34.554Z,67.52
2018-03-19T21:45:03.309Z,67.57
2018-03-19T21:47:31.898Z,67.81
2018-03-19T21:50:00.369Z,68.06
2018-03-19T21:52:29.690Z,68.33
2018-03-19T21:54:58.332Z,68.44
2018-03-19T21:57:27.008Z,68.70
2018-03-19T21:59:55.616Z,68.94
2018-03-19T22:02:24.754Z,69.22
2018-03-19T22:04:53.283Z,69.47
2018-03-19T22:07:24.034Z,69.94
2018-03-19T22:09:52.834Z,70.61
2018-03-19T22:12:21.381Z,71.01
2018-03-19T22:14:50.084Z,71.15
2018-03-19T22:17:18.646Z,71.33
2018-03-19T22:19:47.138Z,71.37
2018-03-19T22:22:15.733Z,71.75
2018-03-19T22:24:45.267Z,71.80
2018-03-19T22:27:14.341Z,71.82
2018-03-19T22:29:42.952Z,71.94
2018-03-19T22:32:11.940Z,72.11
2018-03-19T22:34:40.596Z,72.24
2018-03-19T22:37:09.112Z,72.52
2018-03-19T22:39:38.005Z,72.95
2018-03-19T22:42:07.777Z,73.12
2018-03-19T22:44:36.676Z,73.58
2018-03-19T22:47:05.800Z,73.91
2018-03-19T22:49:34.359Z,73.99
2018-03-19T22:52:03.139Z,74.06
2018-03-19T22:54:32.435Z,74.19
2018-03-19T22:57:01.064Z,74.33
2018-03-19T22:59:29.493Z,74.63
2018-03-19T23:01:58.121Z,74.86
2018-03-19T23:04:38.291Z,74.94
2018-03-19T23:07:07.689Z,74.96
2018-03-19T23:09:36.591Z,74.99
2018-03-19T23:12:07.685Z,74.96
2018-03-19T23:14:37.436Z,74.89
2018-03-19T23:17:06.214Z,74.87
2018-03-19T23:19:34.973Z,74.90
2018-03-19T23:22:04.267Z,74.92
2018-03-19T23:24:32.755Z,74.96
2018-03-19T23:27:01.236Z,75.06
2018-03-19T23:29:29.882Z,75.06
2018-03-19T23:31:58.350Z,74.97
2018-03-19T23:34:26.845Z,74.93
2018-03-19T23:36:56.993Z,74.87
2018-03-19T23:39:26.235Z,74.96
2018-03-19T23:41:54.657Z,74.95
2018-03-19T23:44:23.571Z,74.88
2018-03-19T23:46:52.147Z,74.87
2018-03-19T23:49:20.779Z,74.93
2018-03-19T23:51:49.418Z,74.86
2018-03-19T23:54:29.939Z,74.85
2018-03-19T23:56:58.525Z,74.82
2018-03-19T23:59:35.174Z,74.76
